createdAt,value
2017-08-25T00:00:02.661Z,39.05
2017-08-25T00:02:34.877Z,33.00
2017-08-25T00:05:02.421Z,34.10
2017-08-25T00:07:29.950Z,33.67
2017-08-25T00:09:57.454Z,34.78
2017-08-25T00:12:25.113Z,34.30
2017-08-25T00:14:52.879Z,33.13
2017-08-25T00:17:21.582Z,32.92
2017-08-25T00:19:49.109Z,39.00
2017-08-25T00:22:16.669Z,33.30
2017-08-25T00:24:44.372Z,33.20
2017-08-25T00:27:11.885Z,32.30
2017-08-25T00:29:39.923Z,34.28
2017-08-25T00:32:07.545Z,33.22
2017-08-25T00:37:57.041Z,34.65
2017-08-25T00:40:24.624Z,35.72
2017-08-25T00:42:52.160Z,32.95
2017-08-25T00:45:19.865Z,31.25
2017-08-25T00:47:47.377Z,34.30
2017-08-25T00:50:15.011Z,32.10
2017-08-25T00:52:42.540Z,28.87
2017-08-25T00:55:10.056Z,31.58
2017-08-25T00:57:37.666Z,30.17
2017-08-25T01:00:05.239Z,27.10
2017-08-25T01:02:32.798Z,29.48
2017-08-25T01:05:00.391Z,30.12
2017-08-25T01:07:28.216Z,27.95
2017-08-25T01:09:55.726Z,28.80
2017-08-25T01:12:23.330Z,27.55
2017-08-25T01:14:51.012Z,27.48
2017-08-25T01:17:18.505Z,26.17
2017-08-25T01:19:46.027Z,26.37
2017-08-25T01:22:13.578Z,25.20
2017-08-25T01:24:41.083Z,26.60
2017-08-25T01:27:08.604Z,25.80
2017-08-25T01:29:36.122Z,26.40
2017-08-25T01:32:03.640Z,26.33
2017-08-25T01:34:31.133Z,25.65
2017-08-25T01:36:59.903Z,24.87
2017-08-25T01:39:27.406Z,26.30
2017-08-25T01:41:54.940Z,25.88
2017-08-25T01:44:22.460Z,27.15
2017-08-25T01:46:51.804Z,24.80
2017-08-25T01:49:19.330Z,25.05
2017-08-25T01:51:47.803Z,28.62
2017-08-25T01:54:15.341Z,25.25
2017-08-25T01:56:42.841Z,24.73
2017-08-25T01:59:11.002Z,27.20
2017-08-25T02:01:38.518Z,27.30
2017-08-25T02:04:06.221Z,27.30
2017-08-25T02:06:34.925Z,30.58
2017-08-25T02:09:02.815Z,28.23
2017-08-25T02:11:30.527Z,27.20
2017-08-25T02:13:58.142Z,29.95
2017-08-25T02:16:26.494Z,30.70
2017-08-25T02:18:56.561Z,27.75
2017-08-25T02:21:24.817Z,30.27
2017-08-25T02:23:52.949Z,29.30
2017-08-25T02:26:20.453Z,30.50
2017-08-25T02:28:49.432Z,32.15
2017-08-25T02:31:17.140Z,29.63
2017-08-25T02:33:44.745Z,29.67
2017-08-25T02:36:12.408Z,33.38
2017-08-25T02:38:40.009Z,29.35
2017-08-25T02:41:07.584Z,30.55
2017-08-25T02:43:35.147Z,28.25
2017-08-25T02:46:02.681Z,28.87
2017-08-25T02:48:30.235Z,33.35
2017-08-25T02:50:57.893Z,27.77
2017-08-25T02:53:25.474Z,32.38
2017-08-25T02:55:53.168Z,28.38
2017-08-25T02:58:20.811Z,29.15
2017-08-25T03:00:48.677Z,28.50
2017-08-25T03:03:16.227Z,26.12
2017-08-25T03:05:43.719Z,29.60
2017-08-25T03:08:11.448Z,27.98
2017-08-25T03:10:39.148Z,26.62
2017-08-25T03:13:06.669Z,29.08
2017-08-25T03:15:34.271Z,26.75
2017-08-25T03:18:01.825Z,28.52
2017-08-25T03:20:29.414Z,27.98
2017-08-25T03:22:56.942Z,29.23
2017-08-25T03:25:24.675Z,26.98
2017-08-25T03:27:52.366Z,24.23
2017-08-25T03:30:20.008Z,25.95
2017-08-25T03:32:47.565Z,26.65
2017-08-25T03:35:15.338Z,25.12
2017-08-25T03:37:42.862Z,23.15
2017-08-25T03:40:10.354Z,24.52
2017-08-25T03:42:37.880Z,25.80
2017-08-25T03:45:05.417Z,22.05
2017-08-25T03:47:32.923Z,24.25
2017-08-25T03:50:00.442Z,22.98
2017-08-25T03:52:27.966Z,22.20
2017-08-25T03:54:55.499Z,24.35
2017-08-25T03:57:22.985Z,23.95
2017-08-25T03:59:50.497Z,25.60
2017-08-25T04:02:18.021Z,22.70
2017-08-25T04:04:45.533Z,23.38
2017-08-25T04:07:13.038Z,24.70
2017-08-25T04:09:40.558Z,23.75
2017-08-25T04:12:08.074Z,21.92
2017-08-25T04:14:35.575Z,20.77
2017-08-25T04:17:03.061Z,20.02
2017-08-25T04:19:30.603Z,20.75
2017-08-25T04:21:58.111Z,22.67
2017-08-25T04:24:25.651Z,20.85
2017-08-25T04:26:53.144Z,20.35
2017-08-25T04:29:20.665Z,21.55
2017-08-25T04:31:48.150Z,23.73
2017-08-25T04:34:15.640Z,22.95
2017-08-25T04:36:43.170Z,22.73
2017-08-25T04:39:10.761Z,23.30
2017-08-25T04:41:38.265Z,23.85
2017-08-25T04:44:05.803Z,23.83
2017-08-25T04:46:33.292Z,25.27
2017-08-25T04:49:00.804Z,25.67
2017-08-25T04:51:28.288Z,25.77
2017-08-25T04:53:55.797Z,23.10
2017-08-25T04:56:23.396Z,23.00
2017-08-25T04:58:50.983Z,25.20
2017-08-25T05:01:18.512Z,23.75
2017-08-25T05:03:46.204Z,25.98
2017-08-25T05:06:13.758Z,22.10
2017-08-25T05:08:41.283Z,23.05
2017-08-25T05:11:08.849Z,22.35
2017-08-25T05:13:36.716Z,22.98
2017-08-25T05:16:04.230Z,22.70
2017-08-25T05:18:31.756Z,20.08
2017-08-25T05:20:59.515Z,19.17
2017-08-25T05:23:27.016Z,22.67
2017-08-25T05:25:54.653Z,20.33
2017-08-25T05:28:23.171Z,20.95
2017-08-25T05:30:50.686Z,19.73
2017-08-25T05:33:18.177Z,18.02
2017-08-25T05:35:45.670Z,18.67
2017-08-25T05:38:13.206Z,18.42
2017-08-25T05:40:40.719Z,18.60
2017-08-25T05:43:08.291Z,17.45
2017-08-25T05:45:35.874Z,19.02
2017-08-25T05:48:03.594Z,17.37
2017-08-25T05:50:31.114Z,19.00
2017-08-25T05:52:58.629Z,15.40
2017-08-25T05:55:26.219Z,17.08
2017-08-25T05:57:53.851Z,17.23
2017-08-25T06:00:21.388Z,16.15
2017-08-25T06:02:48.878Z,16.58
2017-08-25T06:05:16.398Z,16.98
2017-08-25T06:07:44.082Z,18.12
2017-08-25T06:10:11.581Z,15.10
2017-08-25T06:12:40.021Z,15.43
2017-08-25T06:15:07.697Z,15.00
2017-08-25T06:17:35.196Z,15.27
2017-08-25T06:20:02.809Z,14.95
2017-08-25T06:22:30.384Z,12.57
2017-08-25T06:24:57.877Z,13.48
2017-08-25T06:27:25.456Z,12.15
2017-08-25T06:29:52.960Z,13.60
2017-08-25T06:32:22.466Z,12.98
2017-08-25T06:34:52.141Z,11.88
2017-08-25T06:37:22.335Z,11.88
2017-08-25T06:39:51.851Z,11.85
2017-08-25T06:42:19.400Z,11.77
2017-08-25T06:44:46.924Z,13.90
2017-08-25T06:47:14.410Z,11.98
2017-08-25T06:49:42.116Z,13.23
2017-08-25T06:52:09.677Z,14.27
2017-08-25T06:54:37.194Z,11.75
2017-08-25T06:57:04.936Z,13.98
2017-08-25T06:59:32.574Z,12.75
2017-08-25T07:02:00.068Z,12.80
2017-08-25T07:04:27.598Z,12.50
2017-08-25T07:06:55.247Z,11.93
2017-08-25T07:09:22.811Z,13.50
2017-08-25T07:11:50.328Z,13.68
2017-08-25T07:14:17.848Z,13.60
2017-08-25T07:16:45.370Z,12.07
2017-08-25T07:19:12.955Z,10.73
2017-08-25T07:21:40.526Z,13.80
2017-08-25T07:24:08.203Z,10.88
2017-08-25T07:26:36.659Z,11.52
2017-08-25T07:29:04.158Z,10.90
2017-08-25T07:31:31.649Z,11.07
2017-08-25T07:33:59.180Z,9.48
2017-08-25T07:36:26.707Z,9.65
2017-08-25T07:38:54.210Z,8.60
2017-08-25T07:41:21.731Z,9.10
2017-08-25T07:43:49.254Z,7.05
2017-08-25T07:46:16.764Z,5.57
2017-08-25T07:48:44.262Z,6.00
2017-08-25T07:51:11.855Z,5.43
2017-08-25T07:53:39.360Z,5.57
2017-08-25T07:56:06.970Z,3.95
2017-08-25T07:58:34.553Z,5.60
2017-08-25T08:01:02.090Z,5.75
2017-08-25T08:03:29.649Z,6.30
2017-08-25T08:05:57.302Z,4.07
2017-08-25T08:08:24.830Z,4.35
2017-08-25T08:10:52.418Z,5.22
2017-08-25T08:13:19.934Z,4.32
2017-08-25T08:15:47.513Z,4.70
2017-08-25T08:18:15.118Z,5.15
2017-08-25T08:20:42.633Z,5.18
2017-08-25T08:23:10.145Z,3.78
2017-08-25T08:25:37.663Z,4.90
2017-08-25T08:28:05.174Z,4.37
2017-08-25T08:30:32.681Z,5.50
2017-08-25T08:33:00.204Z,4.95
2017-08-25T08:35:28.038Z,4.85
2017-08-25T08:37:55.546Z,5.40
2017-08-25T08:40:23.035Z,6.07
2017-08-25T08:42:50.546Z,5.57
2017-08-25T08:45:18.119Z,4.80
2017-08-25T08:47:45.627Z,5.90
2017-08-25T08:50:13.121Z,4.07
2017-08-25T08:52:40.619Z,5.53
2017-08-25T08:55:08.144Z,6.57
2017-08-25T08:57:35.638Z,5.10
2017-08-25T09:00:03.172Z,5.62
2017-08-25T09:02:30.685Z,6.00
2017-08-25T09:04:58.203Z,6.50
2017-08-25T09:07:25.710Z,5.57
2017-08-25T09:09:53.199Z,5.93
2017-08-25T09:12:20.722Z,5.93
2017-08-25T09:14:48.222Z,6.70
2017-08-25T09:17:15.718Z,7.18
2017-08-25T09:19:43.205Z,7.65
2017-08-25T09:22:10.685Z,6.87
2017-08-25T09:24:38.226Z,7.32
2017-08-25T09:27:05.727Z,7.35
2017-08-25T09:29:33.245Z,7.43
2017-08-25T09:32:00.768Z,6.57
2017-08-25T09:34:28.275Z,7.80
2017-08-25T09:36:55.763Z,8.23
2017-08-25T09:39:23.369Z,8.75
2017-08-25T09:41:50.870Z,7.35
2017-08-25T09:44:18.400Z,8.25
2017-08-25T09:46:45.928Z,8.68
2017-08-25T09:49:13.430Z,7.72
2017-08-25T09:51:40.971Z,8.45
2017-08-25T09:54:08.453Z,10.05
2017-08-25T09:56:35.946Z,8.02
2017-08-25T09:59:03.483Z,7.90
2017-08-25T10:01:31.117Z,9.00
2017-08-25T10:03:58.636Z,8.38
2017-08-25T10:06:26.255Z,9.50
2017-08-25T10:08:53.736Z,9.90
2017-08-25T10:11:21.244Z,9.43
2017-08-25T10:13:48.739Z,10.75
2017-08-25T10:16:16.259Z,8.35
2017-08-25T10:18:43.745Z,7.70
2017-08-25T10:21:11.242Z,9.85
2017-08-25T10:23:38.792Z,9.82
2017-08-25T10:26:06.621Z,9.45
2017-08-25T10:28:34.100Z,8.60
2017-08-25T10:31:01.620Z,7.87
2017-08-25T10:33:40.811Z,8.52
2017-08-25T10:36:20.017Z,6.10
2017-08-25T10:38:59.410Z,9.65
2017-08-25T10:41:38.696Z,9.70
2017-08-25T10:44:18.076Z,9.25
2017-08-25T10:46:45.680Z,8.23
2017-08-25T10:49:13.183Z,9.20
2017-08-25T10:51:40.711Z,8.30
2017-08-25T10:54:08.226Z,8.90
2017-08-25T10:56:35.750Z,9.85
2017-08-25T10:59:03.264Z,9.75
2017-08-25T11:01:30.789Z,8.15
2017-08-25T11:03:58.325Z,8.77
2017-08-25T11:06:25.829Z,9.15
2017-08-25T11:08:53.338Z,7.12
2017-08-25T11:11:20.856Z,7.40
2017-08-25T11:13:48.370Z,7.80
2017-08-25T11:16:15.873Z,7.35
2017-08-25T11:18:43.389Z,6.62
2017-08-25T11:21:10.926Z,7.07
2017-08-25T11:23:38.435Z,6.20
2017-08-25T11:26:06.068Z,4.95
2017-08-25T11:28:33.567Z,4.60
2017-08-25T11:31:01.163Z,5.50
2017-08-25T11:33:28.691Z,4.65
2017-08-25T11:35:56.197Z,5.90
2017-08-25T11:38:23.707Z,4.25
2017-08-25T11:40:51.199Z,3.67
2017-08-25T11:43:18.696Z,3.95
2017-08-25T11:45:46.220Z,3.40
2017-08-25T11:48:13.748Z,3.80
2017-08-25T11:50:41.286Z,4.18
2017-08-25T11:53:08.767Z,3.45
2017-08-25T11:55:36.274Z,3.53
2017-08-25T11:58:03.793Z,3.50
2017-08-25T12:00:31.322Z,3.60
2017-08-25T12:02:58.823Z,4.53
2017-08-25T12:05:26.331Z,4.68
2017-08-25T12:07:53.841Z,3.80
2017-08-25T12:10:21.498Z,3.47
2017-08-25T12:12:48.982Z,3.95
2017-08-25T12:15:16.489Z,3.90
2017-08-25T12:17:44.007Z,3.50
2017-08-25T12:20:11.497Z,2.90
2017-08-25T12:22:39.006Z,3.05
2017-08-25T12:25:06.502Z,2.90
2017-08-25T12:27:33.999Z,3.15
2017-08-25T12:30:01.517Z,3.15
2017-08-25T12:32:29.025Z,3.05
2017-08-25T12:34:56.541Z,3.58
2017-08-25T12:37:24.077Z,3.53
2017-08-25T12:39:51.574Z,3.40
2017-08-25T12:42:19.080Z,3.67
2017-08-25T12:44:46.643Z,2.30
2017-08-25T12:47:14.356Z,2.80
2017-08-25T12:49:41.921Z,2.53
2017-08-25T12:52:09.492Z,2.70
2017-08-25T12:54:36.986Z,3.17
2017-08-25T12:57:04.504Z,3.30
2017-08-25T12:59:32.127Z,1.73
2017-08-25T13:01:59.711Z,2.60
2017-08-25T13:04:27.217Z,2.15
2017-08-25T13:06:54.747Z,3.30
2017-08-25T13:09:22.289Z,1.65
2017-08-25T13:11:49.799Z,2.22
2017-08-25T13:14:17.289Z,2.53
2017-08-25T13:16:45.073Z,2.87
2017-08-25T13:19:12.573Z,3.03
2017-08-25T13:21:40.104Z,3.10
2017-08-25T13:24:07.615Z,3.00
2017-08-25T13:26:35.133Z,2.90
2017-08-25T13:29:02.617Z,2.65
2017-08-25T13:31:30.197Z,1.65
2017-08-25T13:33:57.719Z,2.15
2017-08-25T13:36:25.198Z,2.15
2017-08-25T13:38:52.706Z,3.20
2017-08-25T13:41:20.211Z,2.15
2017-08-25T13:43:47.709Z,2.97
2017-08-25T13:46:15.201Z,2.58
2017-08-25T13:48:42.700Z,3.25
2017-08-25T13:51:10.222Z,1.90
2017-08-25T13:53:37.711Z,2.47
2017-08-25T13:56:05.214Z,2.33
2017-08-25T13:58:32.701Z,3.05
2017-08-25T14:01:00.205Z,2.22
2017-08-25T14:03:27.782Z,2.40
2017-08-25T14:05:55.288Z,1.80
2017-08-25T14:08:22.791Z,2.25
2017-08-25T14:10:50.299Z,2.40
2017-08-25T14:13:17.823Z,3.20
2017-08-25T14:15:45.521Z,2.17
2017-08-25T14:18:13.167Z,2.45
2017-08-25T14:20:40.928Z,2.67
2017-08-25T14:23:08.571Z,3.12
2017-08-25T14:25:36.078Z,2.50
2017-08-25T14:28:03.569Z,1.77
2017-08-25T14:30:31.092Z,2.50
2017-08-25T14:32:58.584Z,2.45
2017-08-25T14:35:26.100Z,2.03
2017-08-25T14:37:53.589Z,2.95
2017-08-25T14:40:21.198Z,2.67
2017-08-25T14:42:48.714Z,2.17
2017-08-25T14:45:16.220Z,1.92
2017-08-25T14:47:43.732Z,1.80
2017-08-25T14:50:11.228Z,3.08
2017-08-25T14:52:38.933Z,2.40
2017-08-25T14:55:06.515Z,1.80
2017-08-25T14:57:34.011Z,1.85
2017-08-25T15:00:01.565Z,2.35
2017-08-25T15:02:29.113Z,1.92
2017-08-25T15:04:56.629Z,2.20
2017-08-25T15:07:24.208Z,1.90
2017-08-25T15:09:51.751Z,1.98
2017-08-25T15:12:19.247Z,2.22
2017-08-25T15:14:46.829Z,2.60
2017-08-25T15:17:14.374Z,2.55
2017-08-25T15:19:41.920Z,2.17
2017-08-25T15:22:09.446Z,2.70
2017-08-25T15:24:37.181Z,2.30
2017-08-25T15:27:04.841Z,2.35
2017-08-25T15:29:32.406Z,2.10
2017-08-25T15:31:59.911Z,2.33
2017-08-25T15:34:27.433Z,2.33
2017-08-25T15:36:54.926Z,2.00
2017-08-25T15:39:22.423Z,2.05
2017-08-25T15:41:49.949Z,2.87
2017-08-25T15:44:17.545Z,2.78
2017-08-25T15:46:45.063Z,2.55
2017-08-25T15:49:12.752Z,2.33
2017-08-25T15:51:40.264Z,2.47
2017-08-25T15:54:07.797Z,2.42
2017-08-25T15:56:35.337Z,2.10
2017-08-25T15:59:02.887Z,2.72
2017-08-25T16:01:30.371Z,2.25
2017-08-25T16:03:57.862Z,2.72
2017-08-25T16:06:25.448Z,3.33
2017-08-25T16:08:52.960Z,2.87
2017-08-25T16:11:20.577Z,2.37
2017-08-25T16:13:48.085Z,1.90
2017-08-25T16:16:15.711Z,2.10
2017-08-25T16:18:43.205Z,2.65
2017-08-25T16:21:10.861Z,1.98
2017-08-25T16:23:38.495Z,1.92
2017-08-25T16:26:05.969Z,1.92
2017-08-25T16:28:33.485Z,1.83
2017-08-25T16:31:00.999Z,2.53
2017-08-25T16:33:28.498Z,2.30
2017-08-25T16:35:55.991Z,2.53
2017-08-25T16:38:23.692Z,3.10
2017-08-25T16:40:51.461Z,2.17
2017-08-25T16:43:19.006Z,2.25
2017-08-25T16:45:46.892Z,2.15
2017-08-25T16:48:14.450Z,3.10
2017-08-25T16:50:42.205Z,2.08
2017-08-25T16:53:09.817Z,2.12
2017-08-25T16:55:37.420Z,2.25
2017-08-25T16:58:04.939Z,2.25
2017-08-25T17:00:32.437Z,2.40
2017-08-25T17:02:59.957Z,2.33
2017-08-25T17:05:27.454Z,2.90
2017-08-25T17:07:54.963Z,2.65
2017-08-25T17:10:22.462Z,2.47
2017-08-25T17:12:50.062Z,2.22
2017-08-25T17:15:17.586Z,2.90
2017-08-25T17:17:45.211Z,2.50
2017-08-25T17:20:12.777Z,2.80
2017-08-25T17:22:40.350Z,2.30
2017-08-25T17:25:08.145Z,2.40
2017-08-25T17:27:35.655Z,2.17
2017-08-25T17:30:03.361Z,3.35
2017-08-25T17:32:31.178Z,2.83
2017-08-25T17:34:58.777Z,3.05
2017-08-25T17:37:26.269Z,2.95
2017-08-25T17:39:53.874Z,2.70
2017-08-25T17:42:21.460Z,2.50
2017-08-25T17:44:48.971Z,3.33
2017-08-25T17:47:16.482Z,3.37
2017-08-25T17:49:43.965Z,3.28
2017-08-25T17:52:11.511Z,3.50
2017-08-25T17:54:39.076Z,3.10
2017-08-25T17:57:06.574Z,3.37
2017-08-25T17:59:34.074Z,3.85
2017-08-25T18:02:01.573Z,4.93
2017-08-25T18:04:29.077Z,5.80
2017-08-25T18:06:56.600Z,5.32
2017-08-25T18:09:24.233Z,5.35
2017-08-25T18:11:51.898Z,5.70
2017-08-25T18:14:19.570Z,5.65
2017-08-25T18:16:47.074Z,5.35
2017-08-25T18:19:14.684Z,6.07
2017-08-25T18:21:42.192Z,7.47
2017-08-25T18:24:09.704Z,7.15
2017-08-25T18:26:37.219Z,9.25
2017-08-25T18:29:04.827Z,10.65
2017-08-25T18:31:32.329Z,14.30
2017-08-25T18:33:59.821Z,14.87
2017-08-25T18:36:27.512Z,14.63
2017-08-25T18:38:55.007Z,15.40
2017-08-25T18:41:22.572Z,14.05
2017-08-25T18:43:50.070Z,14.40
2017-08-25T18:46:17.753Z,13.40
2017-08-25T18:48:45.307Z,13.75
2017-08-25T18:51:12.916Z,11.65
2017-08-25T18:53:45.105Z,11.73
2017-08-25T18:56:13.099Z,10.80
2017-08-25T18:58:40.789Z,11.55
2017-08-25T19:01:08.362Z,10.85
2017-08-25T19:03:37.736Z,10.98
2017-08-25T19:06:05.240Z,10.73
2017-08-25T19:08:32.842Z,11.63
2017-08-25T19:11:01.544Z,10.88
2017-08-25T19:13:29.213Z,11.50
2017-08-25T19:15:56.765Z,10.30
2017-08-25T19:18:24.327Z,11.25
2017-08-25T19:20:51.813Z,10.45
2017-08-25T19:23:22.551Z,11.63
2017-08-25T19:25:50.042Z,12.02
2017-08-25T19:28:18.686Z,14.30
2017-08-25T19:30:46.925Z,13.25
2017-08-25T19:33:14.441Z,13.48
2017-08-25T19:35:41.945Z,12.77
2017-08-25T19:38:09.520Z,11.32
2017-08-25T19:40:37.424Z,12.23
2017-08-25T19:43:04.976Z,11.82
2017-08-25T19:45:32.511Z,12.95
2017-08-25T19:48:00.174Z,12.25
2017-08-25T19:50:27.741Z,12.73
2017-08-25T19:52:55.231Z,13.77
2017-08-25T19:55:22.747Z,13.05
2017-08-25T19:57:50.424Z,11.38
2017-08-25T20:00:17.921Z,12.48
2017-08-25T20:02:46.740Z,13.32
2017-08-25T20:05:14.274Z,14.52
2017-08-25T20:07:41.855Z,12.68
2017-08-25T20:10:10.619Z,12.77
2017-08-25T20:12:38.118Z,14.55
2017-08-25T20:15:05.681Z,15.07
2017-08-25T20:17:33.242Z,13.57
2017-08-25T20:20:01.060Z,14.85
2017-08-25T20:22:28.567Z,16.60
2017-08-25T20:24:56.777Z,14.75
2017-08-25T20:27:27.187Z,14.55
2017-08-25T20:29:54.692Z,14.27
2017-08-25T20:32:22.260Z,14.43
2017-08-25T20:34:49.766Z,14.73
2017-08-25T20:37:17.317Z,13.02
2017-08-25T20:39:44.835Z,13.50
2017-08-25T20:42:12.340Z,14.93
2017-08-25T20:44:39.860Z,15.07
2017-08-25T20:47:07.414Z,15.20
2017-08-25T20:49:34.930Z,13.93
2017-08-25T20:52:02.451Z,14.32
2017-08-25T20:54:29.963Z,13.73
2017-08-25T20:56:57.473Z,14.70
2017-08-25T20:59:25.881Z,15.20
2017-08-25T21:01:53.400Z,13.82
2017-08-25T21:04:20.920Z,17.17
2017-08-25T21:06:48.439Z,13.07
2017-08-25T21:09:15.941Z,10.93
2017-08-25T21:11:43.424Z,13.20
2017-08-25T21:14:11.018Z,14.15
2017-08-25T21:16:38.635Z,13.90
2017-08-25T21:19:06.245Z,13.20
2017-08-25T21:21:33.804Z,13.88
2017-08-25T21:24:01.455Z,14.77
2017-08-25T21:26:29.019Z,17.42
2017-08-25T21:28:56.541Z,16.02
2017-08-25T21:31:24.081Z,15.13
2017-08-25T21:33:53.094Z,14.87
2017-08-25T21:36:20.610Z,14.27
2017-08-25T21:38:48.131Z,13.68
2017-08-25T21:41:16.197Z,15.82
2017-08-25T21:43:43.701Z,13.68
2017-08-25T21:46:11.196Z,16.27
2017-08-25T21:48:39.653Z,15.00
2017-08-25T21:51:07.706Z,13.38
2017-08-25T21:53:36.508Z,13.60
2017-08-25T21:56:05.742Z,14.18
2017-08-25T21:58:33.317Z,14.07
2017-08-25T22:01:00.887Z,13.65
2017-08-25T22:03:28.435Z,16.52
2017-08-25T22:05:55.939Z,14.13
2017-08-25T22:08:23.570Z,13.95
2017-08-25T22:10:51.074Z,14.57
2017-08-25T22:13:18.560Z,14.20
2017-08-25T22:15:46.229Z,15.57
2017-08-25T22:18:13.758Z,15.15
2017-08-25T22:20:41.280Z,13.30
2017-08-25T22:23:08.803Z,14.90
2017-08-25T22:25:37.300Z,15.60
2017-08-25T22:28:04.796Z,14.05
2017-08-25T22:30:32.309Z,13.98
2017-08-25T22:32:59.846Z,14.38
2017-08-25T22:35:27.349Z,13.25
2017-08-25T22:37:54.843Z,16.30
2017-08-25T22:40:22.362Z,15.00
2017-08-25T22:42:49.893Z,15.57
2017-08-25T22:45:17.431Z,14.18
2017-08-25T22:47:44.950Z,13.77
2017-08-25T22:50:12.454Z,14.40
2017-08-25T22:52:39.944Z,14.75
2017-08-25T22:55:07.461Z,14.00
2017-08-25T22:57:34.995Z,14.48
2017-08-25T23:00:02.510Z,13.15
2017-08-25T23:02:30.005Z,14.27
2017-08-25T23:04:57.669Z,16.42
2017-08-25T23:07:25.175Z,14.35
2017-08-25T23:09:52.677Z,14.13
2017-08-25T23:12:20.193Z,14.38
2017-08-25T23:14:47.711Z,14.20
2017-08-25T23:17:15.231Z,16.37
2017-08-25T23:19:42.740Z,15.50
2017-08-25T23:22:10.275Z,16.60
2017-08-25T23:24:37.800Z,16.40
2017-08-25T23:27:05.320Z,16.02
2017-08-25T23:29:33.079Z,13.68
2017-08-25T23:32:00.629Z,17.60
2017-08-25T23:34:28.147Z,17.60
2017-08-25T23:36:55.851Z,13.90
2017-08-25T23:39:23.532Z,13.98
2017-08-25T23:41:51.056Z,14.00
2017-08-25T23:44:18.635Z,15.60
2017-08-25T23:46:46.155Z,17.33
2017-08-25T23:49:13.663Z,15.95
2017-08-25T23:51:41.264Z,16.35
2017-08-25T23:54:08.874Z,16.52
2017-08-25T23:56:36.385Z,17.83
2017-08-25T23:59:03.997Z,16.98
